KCLT/CLT METAR and TAF weather

Enter ICAO airport designator
Station Type Date Time Source
KCLT METAR 2022/01/26 13:52 UTC NOAA

KCLT 261352Z 05009KT 10SM FEW060 SCT250 04/M03 A3028 RMK AO2 SLP253 T00391033


Station Type Date Time Source
KCLT Decoded METAR 2022/01/26 13:52 UTC NOAA

CHARLOTTE/DOUGLAS INTERNATIONAL , NC, United States (KCLT) 35-13N 80-57W 220M
Jan 26, 2022 - 08:52 AM EST / 2022.01.26 1352 UTC
Wind: from the NE (050 degrees) at 10 MPH (9 KT):0
Visibility: 10 mile(s):0
Sky conditions: partly cloudy
Temperature: 39.0 F (3.9 C)
Dew Point: 26.1 F (-3.3 C)
Relative Humidity: 59%
Pressure (altimeter): 30.28 in. Hg (1025 hPa)
ob: KCLT 261352Z 05009KT 10SM FEW060 SCT250 04/M03 A3028 RMK AO2 SLP253 T00391033
cycle: 14

Station Type Date Time Source
KCLT TAF 2022/01/26 14:36 UTC NOAA

TAF
AMD KCLT 261335Z 2614/2718 04009G17KT P6SM FEW050 SCT200
FM262200 06005KT P6SM SCT250
FM271600 16003KT P6SM FEW250

Example: see airport list